Date,TemperatureHighF,TemperatureAvgF,TemperatureLowF,DewpointHighF,DewpointAvgF,DewpointLowF,HumidityHigh,HumidityAvg,HumidityLow,PressureMaxIn,PressureMinIn,WindSpeedMaxMPH,WindSpeedAvgMPH,GustSpeedMaxMPH,PrecipitationSumIn
2013-9-1,77,70,59,39,32,23,38,26,17,0.00,40.00,0,-999,0,0.00
2013-9-2,73,68,61,50,41,29,56,39,24,0.00,40.00,0,-999,0,0.00
2013-9-3,63,61,60,56,48,42,81,61,50,0.00,40.00,0,-999,0,0.00
2013-9-4,75,65,59,53,48,41,70,56,37,0.00,40.00,0,-999,0,0.00
2013-9-5,68,63,57,57,51,43,96,67,43,0.00,40.00,0,-999,0,0.00
2013-9-6,68,59,55,54,49,40,98,71,52,0.00,40.00,0,-999,0,0.00
2013-9-7,67,59,54,51,44,37,72,58,42,0.00,40.00,0,-999,0,0.00
2013-9-8,53,51,49,50,48,43,100,89,71,0.00,40.00,0,-999,0,0.02
2013-9-9,61,54,49,56,51,48,98,88,77,0.00,40.00,0,-999,0,0.01
2013-9-10,67,60,55,55,49,45,77,68,60,0.00,40.00,0,-999,0,0.00
2013-9-11,72,66,59,47,44,40,62,47,32,0.00,40.00,0,-999,0,0.00
2013-9-12,73,63,59,46,42,40,53,46,32,0.00,40.00,0,-999,0,0.00
2013-9-13,69,66,63,48,44,38,47,44,39,0.00,40.00,0,-999,0,0.00
2013-9-14,68,62,57,46,43,42,57,51,40,0.00,40.00,0,-999,0,0.00
2013-9-15,72,66,55,46,45,43,63,47,39,0.00,40.00,0,-999,0,0.00
2013-9-16,65,59,52,47,45,43,72,61,48,0.00,40.00,0,-999,0,0.00
2013-9-17,56,50,44,47,44,40,95,79,62,0.00,40.00,0,-999,0,0.01
2013-9-18,46,43,41,46,43,41,100,100,100,0.00,40.00,0,-999,0,0.03
2013-9-19,50,44,40,46,42,37,100,92,75,0.00,40.00,0,-999,0,0.00
2013-9-20,44,44,44,37,36,36,76,76,75,0.00,40.00,0,-999,0,0.00
2013-9-21,56,52,48,45,39,32,72,61,44,0.00,40.00,0,-999,0,0.00
2013-9-22,51,46,42,43,39,36,90,75,65,0.00,40.00,0,-999,0,0.01
2013-9-23,47,42,39,43,40,38,100,94,81,0.00,40.00,0,-999,0,0.01
2013-9-24,42,41,39,42,40,39,100,98,89,0.00,40.00,0,-999,0,0.01
2013-9-25,41,39,37,40,38,34,100,97,89,0.00,40.00,0,-999,0,0.01
2013-9-26,43,39,35,32,30,27,79,68,57,0.00,40.00,0,-999,0,0.00
2013-9-27,40,37,36,36,32,27,98,81,70,0.00,40.00,0,-999,0,0.00
2013-9-28,46,41,36,43,40,36,100,94,87,0.00,40.00,0,-999,0,0.00
2013-9-29,46,41,37,43,39,36,100,92,84,0.00,40.00,0,-999,0,0.00
2013-9-30,39,38,36,38,36,35,100,95,86,0.00,40.00,0,-999,0,0.01